sensor_id;sensor_type;location;lat;lon;timestamp;P1;durP1;ratioP1;P2;durP2;ratioP2
78774;SDS011;68119;43.398;3.676;2023-03-14T00:01:19;16.58;;;3.70;;
78774;SDS011;68119;43.398;3.676;2023-03-14T00:03:45;18.27;;;3.78;;
78774;SDS011;68119;43.398;3.676;2023-03-14T00:06:14;20.63;;;4.35;;
78774;SDS011;68119;43.398;3.676;2023-03-14T00:08:40;23.27;;;4.13;;
78774;SDS011;68119;43.398;3.676;2023-03-14T00:11:11;28.73;;;4.55;;
78774;SDS011;68119;43.398;3.676;2023-03-14T00:13:37;20.63;;;4.50;;
78774;SDS011;68119;43.398;3.676;2023-03-14T00:16:07;20.48;;;3.53;;
78774;SDS011;68119;43.398;3.676;2023-03-14T00:18:36;15.70;;;3.20;;
78774;SDS011;68119;43.398;3.676;2023-03-14T00:21:10;12.95;;;3.08;;
78774;SDS011;68119;43.398;3.676;2023-03-14T00:23:39;11.68;;;2.50;;
78774;SDS011;68119;43.398;3.676;2023-03-14T00:26:07;11.35;;;2.20;;
78774;SDS011;68119;43.398;3.676;2023-03-14T00:28:33;5.90;;;1.73;;
78774;SDS011;68119;43.398;3.676;2023-03-14T00:31:02;4.20;;;1.60;;
78774;SDS011;68119;43.398;3.676;2023-03-14T00:33:31;2.30;;;1.10;;
78774;SDS011;68119;43.398;3.676;2023-03-14T00:35:58;3.25;;;1.40;;
78774;SDS011;68119;43.398;3.676;2023-03-14T00:38:31;1.67;;;1.05;;
78774;SDS011;68119;43.398;3.676;2023-03-14T00:41:07;2.23;;;1.10;;
78774;SDS011;68119;43.398;3.676;2023-03-14T00:43:34;4.03;;;1.30;;
78774;SDS011;68119;43.398;3.676;2023-03-14T00:46:00;4.93;;;1.40;;
78774;SDS011;68119;43.398;3.676;2023-03-14T00:48:29;3.63;;;1.35;;
78774;SDS011;68119;43.398;3.676;2023-03-14T00:50:57;2.13;;;1.33;;
78774;SDS011;68119;43.398;3.676;2023-03-14T00:53:26;3.55;;;1.25;;
78774;SDS011;68119;43.398;3.676;2023-03-14T00:55:56;2.88;;;1.10;;
78774;SDS011;68119;43.398;3.676;2023-03-14T00:58:28;3.17;;;1.40;;
78774;SDS011;68119;43.398;3.676;2023-03-14T01:00:57;3.30;;;1.27;;
78774;SDS011;68119;43.398;3.676;2023-03-14T01:03:25;6.47;;;1.70;;
78774;SDS011;68119;43.398;3.676;2023-03-14T01:05:54;5.30;;;1.60;;
78774;SDS011;68119;43.398;3.676;2023-03-14T01:08:22;3.78;;;1.88;;
78774;SDS011;68119;43.398;3.676;2023-03-14T01:10:53;6.70;;;2.00;;
78774;SDS011;68119;43.398;3.676;2023-03-14T01:13:22;4.13;;;1.60;;
78774;SDS011;68119;43.398;3.676;2023-03-14T01:15:48;8.18;;;2.25;;
78774;SDS011;68119;43.398;3.676;2023-03-14T01:18:14;5.60;;;2.13;;
78774;SDS011;68119;43.398;3.676;2023-03-14T01:20:43;7.72;;;2.10;;
78774;SDS011;68119;43.398;3.676;2023-03-14T01:23:11;6.30;;;1.85;;
78774;SDS011;68119;43.398;3.676;2023-03-14T01:25:40;6.28;;;2.00;;
78774;SDS011;68119;43.398;3.676;2023-03-14T01:28:10;11.20;;;2.47;;
78774;SDS011;68119;43.398;3.676;2023-03-14T01:30:36;5.88;;;2.00;;
78774;SDS011;68119;43.398;3.676;2023-03-14T01:33:04;5.45;;;1.98;;
78774;SDS011;68119;43.398;3.676;2023-03-14T01:35:33;6.85;;;2.08;;
78774;SDS011;68119;43.398;3.676;2023-03-14T01:38:04;6.47;;;2.00;;
78774;SDS011;68119;43.398;3.676;2023-03-14T01:40:31;7.40;;;2.15;;
78774;SDS011;68119;43.398;3.676;2023-03-14T01:43:20;7.57;;;2.30;;
78774;SDS011;68119;43.398;3.676;2023-03-14T01:51:35;8.02;;;2.00;;
78774;SDS011;68119;43.398;3.676;2023-03-14T01:54:47;8.02;;;2.17;;
78774;SDS011;68119;43.398;3.676;2023-03-14T01:56:56;10.23;;;2.30;;
78774;SDS011;68119;43.398;3.676;2023-03-14T01:59:26;9.23;;;2.40;;
78774;SDS011;68119;43.398;3.676;2023-03-14T02:01:59;12.30;;;2.97;;
78774;SDS011;68119;43.398;3.676;2023-03-14T02:04:27;12.80;;;2.80;;
78774;SDS011;68119;43.398;3.676;2023-03-14T02:07:03;10.52;;;2.90;;
78774;SDS011;68119;43.398;3.676;2023-03-14T02:09:35;11.10;;;2.90;;
78774;SDS011;68119;43.398;3.676;2023-03-14T02:12:02;11.75;;;2.70;;
78774;SDS011;68119;43.398;3.676;2023-03-14T02:14:34;15.68;;;3.05;;
78774;SDS011;68119;43.398;3.676;2023-03-14T02:17:01;11.95;;;3.10;;
78774;SDS011;68119;43.398;3.676;2023-03-14T02:22:15;11.75;;;2.97;;
78774;SDS011;68119;43.398;3.676;2023-03-14T02:27:11;12.35;;;3.20;;
78774;SDS011;68119;43.398;3.676;2023-03-14T02:29:49;11.07;;;2.90;;
78774;SDS011;68119;43.398;3.676;2023-03-14T02:32:20;10.93;;;3.83;;
78774;SDS011;68119;43.398;3.676;2023-03-14T02:34:48;11.48;;;3.45;;
78774;SDS011;68119;43.398;3.676;2023-03-14T02:37:15;13.88;;;3.85;;
78774;SDS011;68119;43.398;3.676;2023-03-14T02:39:45;12.23;;;3.28;;
78774;SDS011;68119;43.398;3.676;2023-03-14T02:42:18;11.52;;;3.17;;
78774;SDS011;68119;43.398;3.676;2023-03-14T02:44:55;11.00;;;3.40;;
78774;SDS011;68119;43.398;3.676;2023-03-14T02:47:30;14.68;;;3.45;;
78774;SDS011;68119;43.398;3.676;2023-03-14T02:52:24;17.52;;;4.25;;
78774;SDS011;68119;43.398;3.676;2023-03-14T02:54:51;13.43;;;3.65;;
78774;SDS011;68119;43.398;3.676;2023-03-14T02:57:17;16.63;;;5.00;;
78774;SDS011;68119;43.398;3.676;2023-03-14T02:59:51;12.57;;;4.22;;
78774;SDS011;68119;43.398;3.676;2023-03-14T03:02:22;18.77;;;4.15;;
78774;SDS011;68119;43.398;3.676;2023-03-14T03:04:51;14.45;;;3.72;;
78774;SDS011;68119;43.398;3.676;2023-03-14T03:07:20;15.10;;;3.58;;
78774;SDS011;68119;43.398;3.676;2023-03-14T03:09:49;13.20;;;3.75;;
78774;SDS011;68119;43.398;3.676;2023-03-14T03:12:15;12.98;;;3.53;;
78774;SDS011;68119;43.398;3.676;2023-03-14T03:14:41;14.27;;;3.47;;
78774;SDS011;68119;43.398;3.676;2023-03-14T03:17:07;15.88;;;5.95;;
78774;SDS011;68119;43.398;3.676;2023-03-14T03:19:38;14.10;;;4.65;;
78774;SDS011;68119;43.398;3.676;2023-03-14T03:22:04;13.73;;;3.47;;
78774;SDS011;68119;43.398;3.676;2023-03-14T03:24:33;15.48;;;4.00;;
78774;SDS011;68119;43.398;3.676;2023-03-14T03:27:02;16.05;;;3.90;;
78774;SDS011;68119;43.398;3.676;2023-03-14T03:29:28;10.35;;;3.17;;
78774;SDS011;68119;43.398;3.676;2023-03-14T03:31:58;16.30;;;3.53;;
78774;SDS011;68119;43.398;3.676;2023-03-14T03:34:24;13.45;;;3.45;;
78774;SDS011;68119;43.398;3.676;2023-03-14T03:36:50;12.13;;;3.15;;
78774;SDS011;68119;43.398;3.676;2023-03-14T03:39:18;11.75;;;3.10;;
78774;SDS011;68119;43.398;3.676;2023-03-14T03:41:47;8.35;;;2.80;;
78774;SDS011;68119;43.398;3.676;2023-03-14T03:44:16;11.10;;;3.08;;
78774;SDS011;68119;43.398;3.676;2023-03-14T03:46:45;12.35;;;3.45;;
78774;SDS011;68119;43.398;3.676;2023-03-14T03:49:11;10.77;;;3.28;;
78774;SDS011;68119;43.398;3.676;2023-03-14T03:51:37;15.52;;;3.10;;
78774;SDS011;68119;43.398;3.676;2023-03-14T03:54:05;11.27;;;3.33;;
78774;SDS011;68119;43.398;3.676;2023-03-14T03:56:34;14.07;;;3.47;;
78774;SDS011;68119;43.398;3.676;2023-03-14T03:59:00;10.50;;;2.88;;
78774;SDS011;68119;43.398;3.676;2023-03-14T04:01:34;12.55;;;2.92;;
78774;SDS011;68119;43.398;3.676;2023-03-14T04:06:26;13.10;;;3.28;;
78774;SDS011;68119;43.398;3.676;2023-03-14T04:08:53;10.52;;;3.13;;
78774;SDS011;68119;43.398;3.676;2023-03-14T04:11:19;15.77;;;3.67;;
78774;SDS011;68119;43.398;3.676;2023-03-14T04:13:48;17.52;;;3.58;;
78774;SDS011;68119;43.398;3.676;2023-03-14T04:16:15;16.25;;;4.13;;
78774;SDS011;68119;43.398;3.676;2023-03-14T04:18:48;14.90;;;4.10;;
78774;SDS011;68119;43.398;3.676;2023-03-14T04:21:17;22.38;;;5.13;;
78774;SDS011;68119;43.398;3.676;2023-03-14T04:23:46;15.77;;;4.45;;
78774;SDS011;68119;43.398;3.676;2023-03-14T04:26:12;16.73;;;4.22;;
78774;SDS011;68119;43.398;3.676;2023-03-14T04:28:38;15.13;;;4.07;;
78774;SDS011;68119;43.398;3.676;2023-03-14T04:31:10;16.48;;;4.50;;
78774;SDS011;68119;43.398;3.676;2023-03-14T04:33:36;19.90;;;4.25;;
78774;SDS011;68119;43.398;3.676;2023-03-14T04:36:08;19.70;;;4.07;;
78774;SDS011;68119;43.398;3.676;2023-03-14T04:38:34;15.82;;;4.00;;
78774;SDS011;68119;43.398;3.676;2023-03-14T04:41:03;18.88;;;3.55;;
78774;SDS011;68119;43.398;3.676;2023-03-14T04:43:32;19.77;;;4.13;;
78774;SDS011;68119;43.398;3.676;2023-03-14T04:46:03;16.58;;;4.10;;
78774;SDS011;68119;43.398;3.676;2023-03-14T04:48:32;16.52;;;4.45;;
78774;SDS011;68119;43.398;3.676;2023-03-14T04:51:02;14.35;;;3.97;;
78774;SDS011;68119;43.398;3.676;2023-03-14T04:53:31;17.05;;;4.15;;
78774;SDS011;68119;43.398;3.676;2023-03-14T04:55:57;18.52;;;5.13;;
78774;SDS011;68119;43.398;3.676;2023-03-14T04:58:23;16.25;;;3.53;;
78774;SDS011;68119;43.398;3.676;2023-03-14T05:00:49;16.90;;;4.07;;
78774;SDS011;68119;43.398;3.676;2023-03-14T05:03:18;12.55;;;3.33;;
78774;SDS011;68119;43.398;3.676;2023-03-14T05:05:47;9.38;;;3.40;;
78774;SDS011;68119;43.398;3.676;2023-03-14T05:08:13;8.30;;;2.63;;
78774;SDS011;68119;43.398;3.676;2023-03-14T05:10:39;10.25;;;2.53;;
78774;SDS011;68119;43.398;3.676;2023-03-14T05:13:06;9.77;;;2.70;;
78774;SDS011;68119;43.398;3.676;2023-03-14T05:15:32;5.30;;;2.17;;
78774;SDS011;68119;43.398;3.676;2023-03-14T05:18:01;8.00;;;2.15;;
78774;SDS011;68119;43.398;3.676;2023-03-14T05:20:27;6.45;;;1.90;;
78774;SDS011;68119;43.398;3.676;2023-03-14T05:22:58;7.78;;;2.00;;
78774;SDS011;68119;43.398;3.676;2023-03-14T05:25:24;8.90;;;2.35;;
78774;SDS011;68119;43.398;3.676;2023-03-14T05:27:50;7.25;;;2.45;;
78774;SDS011;68119;43.398;3.676;2023-03-14T05:30:21;6.22;;;1.75;;
78774;SDS011;68119;43.398;3.676;2023-03-14T05:32:48;9.80;;;2.45;;
78774;SDS011;68119;43.398;3.676;2023-03-14T05:35:17;8.73;;;2.45;;
78774;SDS011;68119;43.398;3.676;2023-03-14T05:37:45;7.10;;;2.35;;
78774;SDS011;68119;43.398;3.676;2023-03-14T05:40:14;12.50;;;2.88;;
78774;SDS011;68119;43.398;3.676;2023-03-14T05:42:42;13.60;;;3.00;;
78774;SDS011;68119;43.398;3.676;2023-03-14T05:45:09;11.18;;;2.80;;
78774;SDS011;68119;43.398;3.676;2023-03-14T05:47:35;10.77;;;3.20;;
78774;SDS011;68119;43.398;3.676;2023-03-14T05:50:04;10.13;;;3.15;;
78774;SDS011;68119;43.398;3.676;2023-03-14T05:52:34;10.73;;;2.63;;
78774;SDS011;68119;43.398;3.676;2023-03-14T05:55:08;10.15;;;3.05;;
78774;SDS011;68119;43.398;3.676;2023-03-14T05:57:36;13.65;;;3.30;;
78774;SDS011;68119;43.398;3.676;2023-03-14T06:00:08;9.75;;;2.58;;
78774;SDS011;68119;43.398;3.676;2023-03-14T06:02:37;10.65;;;2.85;;
78774;SDS011;68119;43.398;3.676;2023-03-14T06:05:04;7.85;;;2.25;;
78774;SDS011;68119;43.398;3.676;2023-03-14T06:07:33;9.23;;;2.55;;
78774;SDS011;68119;43.398;3.676;2023-03-14T06:09:59;7.63;;;2.20;;
78774;SDS011;68119;43.398;3.676;2023-03-14T06:12:25;12.20;;;3.40;;
78774;SDS011;68119;43.398;3.676;2023-03-14T06:14:51;14.75;;;3.28;;
78774;SDS011;68119;43.398;3.676;2023-03-14T06:17:30;10.20;;;2.75;;
78774;SDS011;68119;43.398;3.676;2023-03-14T06:19:58;9.93;;;2.30;;
78774;SDS011;68119;43.398;3.676;2023-03-14T06:22:24;7.78;;;2.55;;
78774;SDS011;68119;43.398;3.676;2023-03-14T06:24:50;8.95;;;2.65;;
78774;SDS011;68119;43.398;3.676;2023-03-14T06:27:16;9.88;;;2.50;;
78774;SDS011;68119;43.398;3.676;2023-03-14T06:29:42;4.82;;;1.20;;
78774;SDS011;68119;43.398;3.676;2023-03-14T06:32:11;5.32;;;2.05;;
78774;SDS011;68119;43.398;3.676;2023-03-14T06:34:38;3.42;;;1.45;;
78774;SDS011;68119;43.398;3.676;2023-03-14T06:37:05;5.68;;;1.80;;
78774;SDS011;68119;43.398;3.676;2023-03-14T06:39:34;8.25;;;2.25;;
78774;SDS011;68119;43.398;3.676;2023-03-14T06:42:04;3.80;;;1.90;;
78774;SDS011;68119;43.398;3.676;2023-03-14T06:44:35;5.90;;;1.90;;
78774;SDS011;68119;43.398;3.676;2023-03-14T06:47:03;6.03;;;2.20;;
78774;SDS011;68119;43.398;3.676;2023-03-14T06:49:32;5.68;;;2.00;;
78774;SDS011;68119;43.398;3.676;2023-03-14T06:52:00;6.22;;;1.95;;
78774;SDS011;68119;43.398;3.676;2023-03-14T06:54:29;5.97;;;1.80;;
78774;SDS011;68119;43.398;3.676;2023-03-14T06:56:57;4.07;;;1.80;;
78774;SDS011;68119;43.398;3.676;2023-03-14T06:59:26;6.47;;;2.30;;
78774;SDS011;68119;43.398;3.676;2023-03-14T07:01:55;7.85;;;2.03;;
78774;SDS011;68119;43.398;3.676;2023-03-14T07:04:21;5.80;;;2.05;;
78774;SDS011;68119;43.398;3.676;2023-03-14T07:06:50;3.53;;;1.80;;
78774;SDS011;68119;43.398;3.676;2023-03-14T07:09:16;11.90;;;2.50;;
78774;SDS011;68119;43.398;3.676;2023-03-14T07:11:42;8.98;;;2.38;;
78774;SDS011;68119;43.398;3.676;2023-03-14T07:14:14;7.65;;;2.38;;
78774;SDS011;68119;43.398;3.676;2023-03-14T07:16:40;8.73;;;2.10;;
78774;SDS011;68119;43.398;3.676;2023-03-14T07:19:10;6.18;;;1.80;;
78774;SDS011;68119;43.398;3.676;2023-03-14T07:21:36;10.45;;;2.70;;
78774;SDS011;68119;43.398;3.676;2023-03-14T07:24:05;11.88;;;3.00;;
78774;SDS011;68119;43.398;3.676;2023-03-14T07:26:33;12.48;;;3.10;;
78774;SDS011;68119;43.398;3.676;2023-03-14T07:28:59;9.35;;;3.22;;
78774;SDS011;68119;43.398;3.676;2023-03-14T07:31:31;10.10;;;2.55;;
78774;SDS011;68119;43.398;3.676;2023-03-14T07:33:57;13.52;;;3.75;;
78774;SDS011;68119;43.398;3.676;2023-03-14T07:36:27;8.55;;;2.80;;
78774;SDS011;68119;43.398;3.676;2023-03-14T07:38:56;8.63;;;2.45;;
78774;SDS011;68119;43.398;3.676;2023-03-14T07:41:25;7.72;;;2.60;;
78774;SDS011;68119;43.398;3.676;2023-03-14T07:43:51;8.20;;;2.58;;
78774;SDS011;68119;43.398;3.676;2023-03-14T07:46:22;4.13;;;1.23;;
78774;SDS011;68119;43.398;3.676;2023-03-14T07:48:51;5.15;;;1.63;;
78774;SDS011;68119;43.398;3.676;2023-03-14T07:51:22;5.88;;;1.70;;
78774;SDS011;68119;43.398;3.676;2023-03-14T07:53:48;4.57;;;1.83;;
78774;SDS011;68119;43.398;3.676;2023-03-14T07:56:14;7.88;;;2.17;;
78774;SDS011;68119;43.398;3.676;2023-03-14T07:58:43;5.65;;;1.75;;
78774;SDS011;68119;43.398;3.676;2023-03-14T08:01:09;8.48;;;2.10;;
78774;SDS011;68119;43.398;3.676;2023-03-14T08:03:38;7.07;;;2.30;;
78774;SDS011;68119;43.398;3.676;2023-03-14T08:06:04;7.40;;;2.20;;
78774;SDS011;68119;43.398;3.676;2023-03-14T08:08:33;7.10;;;2.03;;
78774;SDS011;68119;43.398;3.676;2023-03-14T08:11:03;7.05;;;2.40;;
78774;SDS011;68119;43.398;3.676;2023-03-14T08:13:41;9.02;;;2.63;;
78774;SDS011;68119;43.398;3.676;2023-03-14T08:16:07;9.07;;;2.42;;
78774;SDS011;68119;43.398;3.676;2023-03-14T08:18:36;9.68;;;2.60;;
78774;SDS011;68119;43.398;3.676;2023-03-14T08:21:05;7.45;;;2.20;;
78774;SDS011;68119;43.398;3.676;2023-03-14T08:23:31;11.65;;;2.83;;
78774;SDS011;68119;43.398;3.676;2023-03-14T08:26:00;9.20;;;2.55;;
78774;SDS011;68119;43.398;3.676;2023-03-14T08:28:26;10.32;;;2.85;;
78774;SDS011;68119;43.398;3.676;2023-03-14T08:31:01;9.07;;;3.03;;
78774;SDS011;68119;43.398;3.676;2023-03-14T08:33:28;10.30;;;2.95;;
78774;SDS011;68119;43.398;3.676;2023-03-14T08:35:58;8.02;;;2.70;;
78774;SDS011;68119;43.398;3.676;2023-03-14T08:38:27;10.90;;;2.60;;
78774;SDS011;68119;43.398;3.676;2023-03-14T08:40:56;10.73;;;2.92;;
78774;SDS011;68119;43.398;3.676;2023-03-14T08:43:28;8.18;;;2.60;;
78774;SDS011;68119;43.398;3.676;2023-03-14T08:45:58;10.55;;;3.25;;
78774;SDS011;68119;43.398;3.676;2023-03-14T08:48:27;12.35;;;2.90;;
78774;SDS011;68119;43.398;3.676;2023-03-14T08:50:56;8.00;;;2.50;;
78774;SDS011;68119;43.398;3.676;2023-03-14T08:53:22;6.20;;;2.17;;
78774;SDS011;68119;43.398;3.676;2023-03-14T08:55:52;7.28;;;2.28;;
78774;SDS011;68119;43.398;3.676;2023-03-14T08:58:22;9.93;;;2.85;;
78774;SDS011;68119;43.398;3.676;2023-03-14T09:00:51;11.48;;;2.50;;
78774;SDS011;68119;43.398;3.676;2023-03-14T09:03:20;10.35;;;2.88;;
78774;SDS011;68119;43.398;3.676;2023-03-14T09:05:48;8.80;;;2.70;;
78774;SDS011;68119;43.398;3.676;2023-03-14T09:08:14;8.77;;;2.50;;
78774;SDS011;68119;43.398;3.676;2023-03-14T09:10:43;6.65;;;1.85;;
78774;SDS011;68119;43.398;3.676;2023-03-14T09:13:10;5.55;;;2.08;;
78774;SDS011;68119;43.398;3.676;2023-03-14T09:15:36;6.25;;;2.33;;
78774;SDS011;68119;43.398;3.676;2023-03-14T09:18:07;6.70;;;2.13;;
78774;SDS011;68119;43.398;3.676;2023-03-14T09:20:33;8.82;;;2.35;;
78774;SDS011;68119;43.398;3.676;2023-03-14T09:22:59;8.95;;;2.40;;
78774;SDS011;68119;43.398;3.676;2023-03-14T09:25:28;10.48;;;2.60;;
78774;SDS011;68119;43.398;3.676;2023-03-14T09:27:59;8.18;;;2.25;;
78774;SDS011;68119;43.398;3.676;2023-03-14T09:30:25;12.20;;;2.72;;
78774;SDS011;68119;43.398;3.676;2023-03-14T09:32:54;6.25;;;2.15;;
78774;SDS011;68119;43.398;3.676;2023-03-14T09:35:22;5.50;;;1.90;;
78774;SDS011;68119;43.398;3.676;2023-03-14T09:37:48;8.20;;;2.40;;
78774;SDS011;68119;43.398;3.676;2023-03-14T09:40:17;8.05;;;2.50;;
78774;SDS011;68119;43.398;3.676;2023-03-14T09:42:45;10.10;;;2.28;;
78774;SDS011;68119;43.398;3.676;2023-03-14T09:48:01;12.98;;;2.70;;
78774;SDS011;68119;43.398;3.676;2023-03-14T09:50:42;9.52;;;2.70;;
78774;SDS011;68119;43.398;3.676;2023-03-14T09:53:11;6.90;;;2.35;;
78774;SDS011;68119;43.398;3.676;2023-03-14T09:55:42;6.40;;;2.30;;
78774;SDS011;68119;43.398;3.676;2023-03-14T09:58:12;8.60;;;2.40;;
78774;SDS011;68119;43.398;3.676;2023-03-14T10:00:38;5.30;;;2.00;;
78774;SDS011;68119;43.398;3.676;2023-03-14T10:05:40;9.65;;;2.63;;
78774;SDS011;68119;43.398;3.676;2023-03-14T10:08:09;8.75;;;2.92;;
78774;SDS011;68119;43.398;3.676;2023-03-14T10:10:40;9.98;;;3.03;;
78774;SDS011;68119;43.398;3.676;2023-03-14T10:15:35;9.20;;;3.03;;
78774;SDS011;68119;43.398;3.676;2023-03-14T10:18:03;10.98;;;3.10;;
78774;SDS011;68119;43.398;3.676;2023-03-14T10:23:18;9.18;;;3.05;;
78774;SDS011;68119;43.398;3.676;2023-03-14T10:25:52;10.32;;;2.85;;
78774;SDS011;68119;43.398;3.676;2023-03-14T10:28:29;13.83;;;3.33;;
78774;SDS011;68119;43.398;3.676;2023-03-14T10:30:56;9.23;;;2.88;;
78774;SDS011;68119;43.398;3.676;2023-03-14T10:33:24;8.65;;;2.60;;
78774;SDS011;68119;43.398;3.676;2023-03-14T10:35:53;9.68;;;3.53;;
78774;SDS011;68119;43.398;3.676;2023-03-14T10:38:21;14.30;;;4.10;;
78774;SDS011;68119;43.398;3.676;2023-03-14T10:40:52;14.40;;;4.40;;
78774;SDS011;68119;43.398;3.676;2023-03-14T10:43:21;12.67;;;4.47;;
78774;SDS011;68119;43.398;3.676;2023-03-14T10:45:56;12.55;;;4.50;;
78774;SDS011;68119;43.398;3.676;2023-03-14T10:51:05;14.95;;;4.43;;
78774;SDS011;68119;43.398;3.676;2023-03-14T10:53:33;13.35;;;4.30;;
78774;SDS011;68119;43.398;3.676;2023-03-14T10:55:59;10.05;;;3.65;;
78774;SDS011;68119;43.398;3.676;2023-03-14T10:58:28;16.63;;;5.10;;
78774;SDS011;68119;43.398;3.676;2023-03-14T11:03:35;17.33;;;4.85;;
78774;SDS011;68119;43.398;3.676;2023-03-14T11:06:10;13.90;;;4.68;;
78774;SDS011;68119;43.398;3.676;2023-03-14T11:21:46;11.77;;;3.85;;
78774;SDS011;68119;43.398;3.676;2023-03-14T11:32:31;10.35;;;3.35;;
78774;SDS011;68119;43.398;3.676;2023-03-14T11:35:05;8.75;;;3.40;;
78774;SDS011;68119;43.398;3.676;2023-03-14T11:37:40;7.18;;;2.72;;
78774;SDS011;68119;43.398;3.676;2023-03-14T11:40:14;8.15;;;3.10;;
78774;SDS011;68119;43.398;3.676;2023-03-14T11:42:43;9.85;;;2.90;;
78774;SDS011;68119;43.398;3.676;2023-03-14T11:45:13;9.27;;;3.17;;
78774;SDS011;68119;43.398;3.676;2023-03-14T11:47:41;8.68;;;3.03;;
78774;SDS011;68119;43.398;3.676;2023-03-14T11:53:13;8.45;;;3.05;;
78774;SDS011;68119;43.398;3.676;2023-03-14T11:55:46;6.90;;;2.70;;
78774;SDS011;68119;43.398;3.676;2023-03-14T11:58:24;8.20;;;2.75;;
78774;SDS011;68119;43.398;3.676;2023-03-14T12:00:54;7.68;;;2.90;;
78774;SDS011;68119;43.398;3.676;2023-03-14T12:03:26;9.77;;;2.77;;
78774;SDS011;68119;43.398;3.676;2023-03-14T12:08:29;6.90;;;2.58;;
78774;SDS011;68119;43.398;3.676;2023-03-14T12:11:04;8.70;;;3.05;;
78774;SDS011;68119;43.398;3.676;2023-03-14T12:13:32;9.65;;;3.00;;
78774;SDS011;68119;43.398;3.676;2023-03-14T12:16:25;11.75;;;3.53;;
78774;SDS011;68119;43.398;3.676;2023-03-14T12:18:45;11.20;;;3.90;;
78774;SDS011;68119;43.398;3.676;2023-03-14T12:21:13;11.73;;;4.00;;
78774;SDS011;68119;43.398;3.676;2023-03-14T12:26:27;10.45;;;3.80;;
78774;SDS011;68119;43.398;3.676;2023-03-14T12:31:37;12.52;;;4.13;;
78774;SDS011;68119;43.398;3.676;2023-03-14T12:42:02;8.68;;;3.17;;
78774;SDS011;68119;43.398;3.676;2023-03-14T12:49:46;9.05;;;3.75;;
78774;SDS011;68119;43.398;3.676;2023-03-14T12:52:16;10.45;;;3.65;;
78774;SDS011;68119;43.398;3.676;2023-03-14T12:54:49;10.52;;;3.60;;
78774;SDS011;68119;43.398;3.676;2023-03-14T12:59:51;10.63;;;3.85;;
78774;SDS011;68119;43.398;3.676;2023-03-14T13:02:20;14.70;;;4.03;;
78774;SDS011;68119;43.398;3.676;2023-03-14T13:05:10;8.85;;;3.20;;
78774;SDS011;68119;43.398;3.676;2023-03-14T13:10:26;10.70;;;3.80;;
78774;SDS011;68119;43.398;3.676;2023-03-14T13:15:23;9.32;;;3.92;;
78774;SDS011;68119;43.398;3.676;2023-03-14T13:17:50;7.82;;;3.47;;
78774;SDS011;68119;43.398;3.676;2023-03-14T13:20:20;10.25;;;3.78;;
78774;SDS011;68119;43.398;3.676;2023-03-14T13:22:50;10.25;;;3.50;;
78774;SDS011;68119;43.398;3.676;2023-03-14T13:25:16;10.60;;;4.00;;
78774;SDS011;68119;43.398;3.676;2023-03-14T13:27:45;8.47;;;3.43;;
78774;SDS011;68119;43.398;3.676;2023-03-14T13:32:42;11.73;;;3.65;;
78774;SDS011;68119;43.398;3.676;2023-03-14T13:35:19;9.20;;;3.65;;
78774;SDS011;68119;43.398;3.676;2023-03-14T13:37:48;11.30;;;3.35;;
78774;SDS011;68119;43.398;3.676;2023-03-14T13:40:30;10.32;;;3.83;;
78774;SDS011;68119;43.398;3.676;2023-03-14T13:43:01;11.80;;;3.95;;
78774;SDS011;68119;43.398;3.676;2023-03-14T13:45:28;10.40;;;3.40;;
78774;SDS011;68119;43.398;3.676;2023-03-14T13:48:00;8.10;;;3.28;;
78774;SDS011;68119;43.398;3.676;2023-03-14T13:50:36;9.77;;;3.40;;
78774;SDS011;68119;43.398;3.676;2023-03-14T13:53:02;9.38;;;3.25;;
78774;SDS011;68119;43.398;3.676;2023-03-14T13:55:31;8.68;;;3.00;;
78774;SDS011;68119;43.398;3.676;2023-03-14T13:57:57;8.55;;;3.20;;
78774;SDS011;68119;43.398;3.676;2023-03-14T14:00:29;8.20;;;3.08;;
78774;SDS011;68119;43.398;3.676;2023-03-14T14:02:56;8.82;;;3.30;;
78774;SDS011;68119;43.398;3.676;2023-03-14T14:05:26;9.23;;;3.20;;
78774;SDS011;68119;43.398;3.676;2023-03-14T14:07:56;8.95;;;3.47;;
78774;SDS011;68119;43.398;3.676;2023-03-14T14:10:25;8.13;;;3.20;;
78774;SDS011;68119;43.398;3.676;2023-03-14T14:12:56;9.90;;;3.42;;
78774;SDS011;68119;43.398;3.676;2023-03-14T14:15:28;11.05;;;3.35;;
78774;SDS011;68119;43.398;3.676;2023-03-14T14:17:59;8.57;;;3.28;;
78774;SDS011;68119;43.398;3.676;2023-03-14T14:20:26;8.77;;;3.38;;
78774;SDS011;68119;43.398;3.676;2023-03-14T14:23:02;9.23;;;2.83;;
78774;SDS011;68119;43.398;3.676;2023-03-14T14:25:29;8.70;;;3.25;;
78774;SDS011;68119;43.398;3.676;2023-03-14T14:27:56;9.10;;;3.35;;
78774;SDS011;68119;43.398;3.676;2023-03-14T14:30:30;10.68;;;3.63;;
78774;SDS011;68119;43.398;3.676;2023-03-14T14:33:16;10.57;;;3.35;;
78774;SDS011;68119;43.398;3.676;2023-03-14T14:36:04;8.15;;;3.22;;
78774;SDS011;68119;43.398;3.676;2023-03-14T14:38:29;7.80;;;3.17;;
78774;SDS011;68119;43.398;3.676;2023-03-14T14:41:09;10.27;;;3.88;;
78774;SDS011;68119;43.398;3.676;2023-03-14T14:43:36;8.68;;;3.15;;
78774;SDS011;68119;43.398;3.676;2023-03-14T14:46:08;9.65;;;3.22;;
78774;SDS011;68119;43.398;3.676;2023-03-14T14:48:36;7.40;;;2.70;;
78774;SDS011;68119;43.398;3.676;2023-03-14T14:51:08;8.35;;;2.58;;
78774;SDS011;68119;43.398;3.676;2023-03-14T14:53:41;7.80;;;2.80;;
78774;SDS011;68119;43.398;3.676;2023-03-14T14:58:46;6.65;;;2.63;;
78774;SDS011;68119;43.398;3.676;2023-03-14T15:01:19;5.97;;;2.40;;
78774;SDS011;68119;43.398;3.676;2023-03-14T15:03:50;5.57;;;2.13;;
78774;SDS011;68119;43.398;3.676;2023-03-14T15:06:17;5.40;;;2.38;;
78774;SDS011;68119;43.398;3.676;2023-03-14T15:08:46;7.80;;;2.80;;
78774;SDS011;68119;43.398;3.676;2023-03-14T15:11:16;5.88;;;2.40;;
78774;SDS011;68119;43.398;3.676;2023-03-14T15:13:47;7.75;;;2.53;;
78774;SDS011;68119;43.398;3.676;2023-03-14T15:16:17;8.85;;;2.70;;
78774;SDS011;68119;43.398;3.676;2023-03-14T15:18:44;7.25;;;2.50;;
78774;SDS011;68119;43.398;3.676;2023-03-14T15:21:17;5.80;;;2.30;;
78774;SDS011;68119;43.398;3.676;2023-03-14T15:23:43;5.47;;;2.15;;
78774;SDS011;68119;43.398;3.676;2023-03-14T15:26:19;5.03;;;2.30;;
78774;SDS011;68119;43.398;3.676;2023-03-14T15:28:46;5.82;;;2.30;;
78774;SDS011;68119;43.398;3.676;2023-03-14T15:31:15;4.53;;;1.85;;
78774;SDS011;68119;43.398;3.676;2023-03-14T15:33:42;7.35;;;2.20;;
78774;SDS011;68119;43.398;3.676;2023-03-14T15:36:22;6.00;;;2.58;;
78774;SDS011;68119;43.398;3.676;2023-03-14T15:38:49;6.22;;;2.17;;
78774;SDS011;68119;43.398;3.676;2023-03-14T15:41:15;7.70;;;2.45;;
78774;SDS011;68119;43.398;3.676;2023-03-14T15:43:48;5.70;;;2.22;;
78774;SDS011;68119;43.398;3.676;2023-03-14T15:46:15;6.53;;;1.83;;
78774;SDS011;68119;43.398;3.676;2023-03-14T15:48:42;5.25;;;2.05;;
78774;SDS011;68119;43.398;3.676;2023-03-14T15:51:09;7.22;;;2.20;;
78774;SDS011;68119;43.398;3.676;2023-03-14T15:53:35;4.72;;;1.92;;
78774;SDS011;68119;43.398;3.676;2023-03-14T15:56:05;4.55;;;1.80;;
78774;SDS011;68119;43.398;3.676;2023-03-14T15:58:31;6.35;;;2.00;;
78774;SDS011;68119;43.398;3.676;2023-03-14T16:01:03;6.15;;;2.15;;
78774;SDS011;68119;43.398;3.676;2023-03-14T16:06:05;5.20;;;2.10;;
78774;SDS011;68119;43.398;3.676;2023-03-14T16:08:31;5.47;;;2.00;;
78774;SDS011;68119;43.398;3.676;2023-03-14T16:11:01;7.85;;;2.30;;
78774;SDS011;68119;43.398;3.676;2023-03-14T16:13:29;4.85;;;2.08;;
78774;SDS011;68119;43.398;3.676;2023-03-14T16:16:02;7.70;;;2.30;;
78774;SDS011;68119;43.398;3.676;2023-03-14T16:18:30;7.40;;;2.42;;
78774;SDS011;68119;43.398;3.676;2023-03-14T16:20:57;4.35;;;1.90;;
78774;SDS011;68119;43.398;3.676;2023-03-14T16:23:24;7.93;;;2.47;;
78774;SDS011;68119;43.398;3.676;2023-03-14T16:25:53;6.28;;;2.35;;
78774;SDS011;68119;43.398;3.676;2023-03-14T16:28:19;6.53;;;2.20;;